Terminal Aerodrome Forecast
Issued by NWS Brownsville, TX

Home | Current Version | Previous Version | Text Only | Print | Product List | Glossary On
Versions: 1 2 3 4 5 6 7 8 9 10 11 12 13 14 15 16 17 18
577
FTUS44 KBRO 251120
TAFHRL
TAF
KHRL 251120Z 2512/2612 16006KT 4SM BR BKN015
      TEMPO 2512/2515 SCT015
     FM251500 17008KT P6SM BKN025
     FM251700 16010KT P6SM FEW040 SCT250
     FM260300 16008KT P6SM FEW250
     FM260800 17010KT P6SM BKN025=

USA.gov is the U.S. government's official web portal to all federal, state and local government web resources and services.